KFRI/FRI METAR and TAF weather

Enter ICAO airport designator
Station Type Date Time Source
KFRI METAR 2019/10/22 15:56 UTC NOAA

KFRI 221556Z AUTO 27007G16KT 10SM CLR 11/00 A3009 RMK AO2 SLP190 T01130001


Station Type Date Time Source
KFRI Decoded METAR 2019/10/22 15:56 UTC NOAA

Fort Riley, Marshall AAF Ft Riley, KS, United States (KFRI) 39-03-20N 096-45-51W
Oct 22, 2019 - 11:56 AM EDT / 2019.10.22 1556 UTC
Wind: from the W (270 degrees) at 8 MPH (7 KT) gusting to 18 MPH (16 KT):0
Visibility: 10 mile(s):0
Sky conditions: clear
Temperature: 52.3 F (11.3 C)
Dew Point: 32.2 F (0.1 C)
Relative Humidity: 45%
Pressure (altimeter): 30.09 in. Hg (1018 hPa)
ob: KFRI 221556Z AUTO 27007G16KT 10SM CLR 11/00 A3009 RMK AO2 SLP190 T01130001
cycle: 16

Station Type Date Time Source
KFRI TAF 2019/10/22 13:57 UTC NOAA

TAF KFRI 221300Z 2213/2319 28009KT 9999 FEW150 QNH2990INS
BECMG 2217/2218 29015G25KT 9999 SKC QNH3006INS
BECMG 2221/2222 28012KT 9999 SKC QNH2991INS TX15/2220Z TN02/2312Z

Example: see airport list